Time;durP1;ratioP1;P1;durP2;ratioP2;P2;SDS_P1;SDS_P2;PMS_P1;PMS_P2;Temp;Humidity;BMP_temperature;BMP_pressure;BME280_temperature;BME280_humidity;BME280_pressure;Samples;Min_cycle;Max_cycle;Signal;HPM_P1;HPM_P2
2023/07/17 00:02:15;;;;;;;7.72;1.98;;;16.70;99.90;;;;;;5018161;28;20055;-80
2023/07/17 00:04:41;;;;;;;7.53;2.33;;;16.70;99.90;;;;;;5017685;28;20077;-80
2023/07/17 00:07:07;;;;;;;8.90;2.05;;;16.80;99.90;;;;;;5017724;28;20125;-80
2023/07/17 00:09:32;;;;;;;13.77;2.45;;;16.70;99.90;;;;;;5029146;28;20543;-80
2023/07/17 00:11:58;;;;;;;11.13;2.60;;;16.60;99.90;;;;;;5020718;28;20049;-80
2023/07/17 00:14:24;;;;;;;12.82;2.47;;;16.60;99.90;;;;;;5020456;28;20087;-80
2023/07/17 00:16:49;;;;;;;7.97;2.35;;;16.60;99.90;;;;;;5019967;28;20065;-80
2023/07/17 00:19:15;;;;;;;11.48;2.47;;;16.60;99.90;;;;;;5018349;28;20107;-80
2023/07/17 00:21:40;;;;;;;11.57;2.45;;;16.60;99.90;;;;;;5023486;28;20037;-80
2023/07/17 00:24:06;;;;;;;7.78;2.15;;;16.70;99.90;;;;;;5010584;28;20060;-80
2023/07/17 00:26:32;;;;;;;10.40;2.50;;;16.70;99.90;;;;;;5010693;28;20052;-79
2023/07/17 00:29:21;;;;;;;8.70;2.40;;;16.70;99.90;;;;;;5030226;28;20316;-80
2023/07/17 00:31:47;;;;;;;9.30;2.67;;;16.60;99.90;;;;;;5010691;28;20084;-80
2023/07/17 00:34:12;;;;;;;15.93;3.20;;;16.60;99.90;;;;;;5027214;28;20080;-79
2023/07/17 00:36:38;;;;;;;11.75;2.63;;;16.60;99.90;;;;;;5020122;28;20045;-80
2023/07/17 00:39:04;;;;;;;11.70;2.60;;;16.60;99.90;;;;;;5009729;28;20048;-79
2023/07/17 00:41:29;;;;;;;13.88;2.80;;;16.70;99.90;;;;;;5022359;28;20037;-79
2023/07/17 00:43:55;;;;;;;8.93;1.85;;;16.60;99.90;;;;;;5009875;28;20041;-79
2023/07/17 00:46:21;;;;;;;5.28;1.80;;;16.50;99.90;;;;;;5025765;28;20048;-79
2023/07/17 00:48:48;;;;;;;5.35;1.52;;;16.50;99.90;;;;;;5025509;28;20501;-79
2023/07/17 00:51:14;;;;;;;3.92;1.65;;;16.30;99.90;;;;;;5028068;28;20508;-79
2023/07/17 00:53:41;;;;;;;3.03;1.45;;;16.20;99.90;;;;;;5027337;28;20041;-79
2023/07/17 00:56:07;;;;;;;4.72;1.83;;;16.20;99.90;;;;;;5029771;28;20532;-79
2023/07/17 00:58:33;;;;;;;3.53;1.55;;;16.10;99.90;;;;;;5031489;28;20033;-79
2023/07/17 01:00:58;;;;;;;2.85;1.77;;;16.00;99.90;;;;;;5031936;28;20624;-79
2023/07/17 01:03:24;;;;;;;5.22;1.30;;;15.90;99.90;;;;;;5013222;28;20033;-79
2023/07/17 01:05:50;;;;;;;6.78;1.83;;;15.90;99.90;;;;;;5031739;28;20045;-78
2023/07/17 01:08:16;;;;;;;4.32;1.60;;;16.00;99.90;;;;;;5025018;28;20052;-79
2023/07/17 01:10:42;;;;;;;4.90;1.60;;;15.80;99.90;;;;;;5031448;28;20127;-79
2023/07/17 01:13:11;;;;;;;6.82;1.88;;;15.80;99.90;;;;;;5013819;28;20037;-79
2023/07/17 01:15:36;;;;;;;8.40;1.98;;;15.70;99.90;;;;;;5030457;28;20053;-79
2023/07/17 01:18:02;;;;;;;7.07;1.90;;;16.00;99.90;;;;;;5030527;28;20042;-79
2023/07/17 01:20:28;;;;;;;2.05;1.25;;;15.70;99.90;;;;;;5014175;28;20756;-79
2023/07/17 01:23:00;;;;;;;3.25;1.52;;;15.80;99.90;;;;;;5031015;28;20187;-79
2023/07/17 01:25:26;;;;;;;6.70;1.90;;;15.70;99.90;;;;;;5030700;28;20052;-79
2023/07/17 01:27:52;;;;;;;4.93;1.42;;;15.70;99.90;;;;;;5006759;28;20045;-79
2023/07/17 01:30:18;;;;;;;3.47;1.63;;;15.70;99.90;;;;;;5030229;28;20485;-80
2023/07/17 01:32:44;;;;;;;6.90;1.67;;;16.30;99.90;;;;;;5027188;28;20041;-79
2023/07/17 01:35:09;;;;;;;6.63;1.80;;;15.70;99.90;;;;;;5031744;28;20073;-80
2023/07/17 01:37:35;;;;;;;5.60;1.90;;;15.70;99.90;;;;;;5007460;28;20464;-80
2023/07/17 01:40:02;;;;;;;4.15;1.80;;;15.70;99.90;;;;;;5030471;28;20057;-80
2023/07/17 01:42:28;;;;;;;5.88;1.80;;;15.70;99.90;;;;;;5030975;28;20069;-80
2023/07/17 01:44:53;;;;;;;7.18;2.35;;;15.70;99.90;;;;;;5030893;28;20080;-80
2023/07/17 01:47:19;;;;;;;6.20;2.22;;;15.70;99.90;;;;;;5012219;28;20049;-80
2023/07/17 01:49:44;;;;;;;6.20;2.22;;;15.70;99.90;;;;;;5013403;28;20030;-80
2023/07/17 01:52:10;;;;;;;7.88;2.42;;;15.70;99.90;;;;;;5012585;28;20397;-79
2023/07/17 01:54:36;;;;;;;6.05;2.08;;;15.70;99.90;;;;;;5031140;28;20073;-79
2023/07/17 01:57:02;;;;;;;4.90;1.77;;;15.60;99.90;;;;;;5023921;28;20056;-80
2023/07/17 01:59:27;;;;;;;4.28;1.98;;;15.70;99.90;;;;;;5029511;28;20049;-80
2023/07/17 02:01:53;;;;;;;5.43;1.88;;;15.70;99.90;;;;;;5022998;28;20033;-80
2023/07/17 02:04:19;;;;;;;5.88;2.03;;;15.70;99.90;;;;;;5005137;28;20477;-79
2023/07/17 02:06:45;;;;;;;7.35;2.33;;;15.70;99.90;;;;;;5024828;28;20077;-79
2023/07/17 02:09:10;;;;;;;9.57;2.50;;;15.70;99.90;;;;;;5037444;28;20065;-80
2023/07/17 02:11:36;;;;;;;4.82;2.20;;;15.80;99.90;;;;;;5034117;28;20068;-80
2023/07/17 02:14:02;;;;;;;6.10;2.30;;;15.60;99.90;;;;;;5030229;28;20041;-80
2023/07/17 02:16:28;;;;;;;8.23;2.38;;;15.70;99.90;;;;;;5028258;28;20041;-79
2023/07/17 02:18:53;;;;;;;7.25;2.20;;;15.60;99.90;;;;;;5027453;28;20485;-80
2023/07/17 02:21:19;;;;;;;6.45;2.20;;;15.60;99.90;;;;;;5030071;28;20045;-80
2023/07/17 02:23:44;;;;;;;6.88;2.25;;;15.50;99.90;;;;;;5030373;28;20121;-80
2023/07/17 02:26:11;;;;;;;6.00;2.05;;;15.50;99.90;;;;;;5030208;28;20503;-79
2023/07/17 02:28:37;;;;;;;5.35;2.20;;;15.50;99.90;;;;;;5030239;28;20033;-80
2023/07/17 02:31:03;;;;;;;7.53;2.42;;;15.50;99.90;;;;;;5030116;28;20080;-80
2023/07/17 02:33:28;;;;;;;6.22;1.92;;;16.80;99.90;;;;;;5030154;28;20059;-79
2023/07/17 02:35:54;;;;;;;10.18;2.30;;;15.50;99.90;;;;;;5028373;28;20052;-80
2023/07/17 02:38:20;;;;;;;5.90;2.00;;;15.50;99.90;;;;;;5030105;28;20060;-80
2023/07/17 02:40:46;;;;;;;7.03;2.38;;;15.70;99.90;;;;;;5025982;28;20129;-80
2023/07/17 02:43:13;;;;;;;6.82;2.10;;;15.40;99.90;;;;;;5026218;28;20077;-80
2023/07/17 02:45:38;;;;;;;8.82;2.90;;;15.70;99.90;;;;;;5022412;28;20124;-80
2023/07/17 02:48:04;;;;;;;10.63;2.95;;;15.50;99.90;;;;;;5021834;28;20141;-80
2023/07/17 02:50:30;;;;;;;6.68;3.00;;;15.50;99.90;;;;;;5021473;28;20506;-80
2023/07/17 02:52:56;;;;;;;9.27;2.60;;;15.40;99.90;;;;;;5022207;28;20080;-80
2023/07/17 02:55:22;;;;;;;8.65;3.13;;;15.40;99.90;;;;;;5025925;28;20484;-80
2023/07/17 02:57:48;;;;;;;8.73;3.08;;;15.40;99.90;;;;;;5018054;28;20397;-80
2023/07/17 03:00:14;;;;;;;10.80;3.70;;;16.00;99.90;;;;;;5018567;28;20038;-80
2023/07/17 03:02:42;;;;;;;7.63;3.17;;;15.40;99.90;;;;;;5021790;28;20179;-80
2023/07/17 03:05:09;;;;;;;10.48;3.20;;;16.20;99.90;;;;;;5022059;28;20088;-80
2023/07/17 03:07:43;;;;;;;9.13;3.35;;;15.40;99.90;;;;;;5019287;28;20046;-79
2023/07/17 03:10:09;;;;;;;9.13;2.65;;;15.30;99.90;;;;;;5000904;28;20722;-80
2023/07/17 03:12:36;;;;;;;7.28;3.42;;;15.30;99.90;;;;;;5020827;28;20038;-79
2023/07/17 03:15:02;;;;;;;8.45;3.05;;;15.30;99.90;;;;;;5021526;28;20602;-80
2023/07/17 03:17:28;;;;;;;8.75;3.15;;;15.30;99.90;;;;;;5019286;28;20088;-79
2023/07/17 03:19:53;;;;;;;9.15;2.88;;;15.30;99.90;;;;;;5018038;28;20088;-80
2023/07/17 03:22:19;;;;;;;7.30;2.72;;;15.30;99.90;;;;;;5000912;28;20044;-80
2023/07/17 03:24:44;;;;;;;6.90;2.83;;;15.30;99.90;;;;;;5020716;28;20088;-80
2023/07/17 03:27:10;;;;;;;9.75;3.17;;;15.30;99.90;;;;;;5021324;28;20092;-80
2023/07/17 03:29:36;;;;;;;7.35;2.47;;;15.30;99.90;;;;;;5019187;28;20484;-80
2023/07/17 03:32:02;;;;;;;8.60;2.65;;;15.80;99.90;;;;;;5024540;28;20046;-80
2023/07/17 03:34:27;;;;;;;12.07;3.55;;;15.30;99.90;;;;;;5019836;28;20068;-80
2023/07/17 03:36:53;;;;;;;7.45;2.72;;;15.30;99.90;;;;;;5017731;28;20038;-80
2023/07/17 03:39:19;;;;;;;8.05;3.00;;;15.30;99.90;;;;;;5017394;28;20042;-80
2023/07/17 03:41:45;;;;;;;6.60;2.00;;;15.30;99.90;;;;;;5003989;28;20041;-80
2023/07/17 03:44:12;;;;;;;4.85;1.98;;;15.30;99.90;;;;;;5021491;28;20041;-79
2023/07/17 03:46:38;;;;;;;9.68;2.50;;;15.30;99.90;;;;;;5018660;28;20037;-80
2023/07/17 03:49:03;;;;;;;8.70;2.58;;;16.20;99.90;;;;;;5009120;28;20064;-80
2023/07/17 03:51:29;;;;;;;9.73;2.28;;;15.30;99.90;;;;;;5020603;28;20057;-80
2023/07/17 03:53:55;;;;;;;8.85;2.28;;;15.20;99.90;;;;;;5020272;28;20381;-80
2023/07/17 03:56:20;;;;;;;7.45;1.83;;;15.20;99.90;;;;;;5020677;28;20103;-80
2023/07/17 03:58:47;;;;;;;5.28;1.83;;;15.10;99.90;;;;;;5020157;28;20041;-80
2023/07/17 04:01:13;;;;;;;8.05;2.20;;;15.10;99.90;;;;;;5020778;28;20053;-78
2023/07/17 04:03:38;;;;;;;7.70;2.95;;;15.10;99.90;;;;;;5000960;28;20041;-79
2023/07/17 04:06:04;;;;;;;7.05;2.22;;;15.00;99.90;;;;;;5016552;28;20139;-79
2023/07/17 04:08:29;;;;;;;8.35;2.20;;;15.00;99.90;;;;;;5018436;28;20082;-79
2023/07/17 04:10:55;;;;;;;7.65;2.55;;;15.00;99.90;;;;;;5020796;28;20084;-79
2023/07/17 04:13:21;;;;;;;6.50;1.77;;;15.00;99.90;;;;;;4986128;28;20091;-79
2023/07/17 04:15:48;;;;;;;6.68;2.10;;;15.40;99.90;;;;;;5017023;28;20038;-79
2023/07/17 04:18:14;;;;;;;7.35;1.52;;;15.00;99.90;;;;;;5017204;28;20061;-79
2023/07/17 04:20:40;;;;;;;8.45;2.22;;;15.50;99.90;;;;;;5018961;28;20486;-79
2023/07/17 04:23:06;;;;;;;6.85;2.40;;;15.00;99.90;;;;;;5020198;28;20258;-79
2023/07/17 04:25:32;;;;;;;10.93;2.10;;;15.00;99.90;;;;;;5011917;28;20054;-79
2023/07/17 04:27:57;;;;;;;6.47;2.20;;;15.00;99.90;;;;;;5019992;28;20124;-79
2023/07/17 04:30:23;;;;;;;6.18;2.30;;;15.00;99.90;;;;;;5019799;28;20137;-79
2023/07/17 04:32:53;;;;;;;6.53;2.05;;;15.00;99.90;;;;;;5007557;28;20042;-78
2023/07/17 04:35:18;;;;;;;4.70;2.30;;;15.00;99.90;;;;;;5016102;28;20084;-79
2023/07/17 04:37:44;;;;;;;8.80;2.63;;;15.00;99.90;;;;;;5001522;28;20073;-79
2023/07/17 04:40:10;;;;;;;10.32;2.80;;;15.70;99.90;;;;;;5020532;28;20501;-79
2023/07/17 04:42:35;;;;;;;10.20;3.33;;;15.10;99.90;;;;;;5000448;28;20053;-79
2023/07/17 04:45:01;;;;;;;7.07;2.22;;;15.00;99.90;;;;;;4998755;28;20157;-79
2023/07/17 04:47:26;;;;;;;9.77;2.50;;;15.00;99.90;;;;;;5016391;28;20041;-79
2023/07/17 04:49:55;;;;;;;9.20;2.50;;;15.10;99.90;;;;;;5024670;28;20088;-79
2023/07/17 04:52:21;;;;;;;8.52;2.47;;;15.10;99.90;;;;;;5016970;28;20053;-79
2023/07/17 04:54:46;;;;;;;11.63;2.60;;;15.10;99.90;;;;;;4985131;28;20044;-79
2023/07/17 04:57:12;;;;;;;11.20;2.85;;;15.10;99.90;;;;;;5019342;28;20042;-79
2023/07/17 04:59:43;;;;;;;10.10;2.80;;;15.20;99.90;;;;;;5018908;28;20129;-79
2023/07/17 05:02:09;;;;;;;9.02;2.60;;;15.20;99.90;;;;;;4998590;28;20075;-79
2023/07/17 05:04:34;;;;;;;7.72;2.67;;;15.80;99.90;;;;;;5017393;28;20543;-79
2023/07/17 05:07:00;;;;;;;12.43;3.08;;;15.20;99.90;;;;;;5019299;28;20085;-79
2023/07/17 05:09:26;;;;;;;5.78;2.65;;;15.20;99.90;;;;;;5019670;28;20048;-79
2023/07/17 05:11:51;;;;;;;10.27;2.60;;;15.20;99.90;;;;;;5016988;28;20327;-79
2023/07/17 05:14:17;;;;;;;11.23;2.55;;;15.30;99.90;;;;;;5016798;28;20037;-79
2023/07/17 05:16:44;;;;;;;10.90;3.15;;;15.30;99.90;;;;;;5017510;28;20052;-79
2023/07/17 05:19:09;;;;;;;11.05;3.17;;;15.30;99.90;;;;;;5020285;28;20042;-79
2023/07/17 05:21:35;;;;;;;8.95;2.63;;;15.80;99.90;;;;;;5001622;28;20067;-79
2023/07/17 05:24:01;;;;;;;11.30;3.15;;;15.30;99.90;;;;;;5007582;28;20765;-79
2023/07/17 05:26:26;;;;;;;9.90;2.80;;;15.40;99.90;;;;;;5017743;28;20121;-79
2023/07/17 05:28:53;;;;;;;12.07;2.92;;;15.40;99.90;;;;;;5028538;28;20049;-79
2023/07/17 05:31:19;;;;;;;11.57;3.17;;;15.40;99.90;;;;;;5022855;28;20103;-79
2023/07/17 05:33:45;;;;;;;11.32;3.42;;;15.80;99.90;;;;;;5018334;28;20050;-79
2023/07/17 05:36:10;;;;;;;11.63;3.25;;;15.50;99.90;;;;;;5019597;28;20375;-79
2023/07/17 05:38:36;;;;;;;10.70;3.35;;;15.50;99.90;;;;;;5018982;28;20041;-79
2023/07/17 05:41:04;;;;;;;14.85;3.78;;;16.20;99.90;;;;;;5017043;28;20042;-79
2023/07/17 05:43:31;;;;;;;10.60;3.03;;;15.60;99.90;;;;;;5020206;28;20041;-79
2023/07/17 05:45:57;;;;;;;10.88;3.05;;;15.70;99.90;;;;;;5022550;28;20041;-79
2023/07/17 05:48:23;;;;;;;15.32;3.65;;;15.70;99.90;;;;;;5023456;28;20124;-80
2023/07/17 05:50:48;;;;;;;10.60;3.20;;;15.80;99.90;;;;;;5024045;28;20044;-80
2023/07/17 05:53:14;;;;;;;14.70;3.40;;;15.80;99.90;;;;;;5021720;28;20481;-80
2023/07/17 05:55:41;;;;;;;17.42;3.47;;;15.80;99.90;;;;;;5022152;28;20091;-80
2023/07/17 05:58:07;;;;;;;13.35;3.25;;;15.70;99.90;;;;;;5019807;28;20052;-80
2023/07/17 06:00:33;;;;;;;11.27;3.75;;;15.80;99.90;;;;;;5017738;28;20064;-80
2023/07/17 06:02:58;;;;;;;13.57;3.85;;;15.90;99.90;;;;;;5018923;28;20058;-80
2023/07/17 06:05:24;;;;;;;18.25;7.05;;;15.90;99.90;;;;;;5021818;28;20088;-80
2023/07/17 06:07:50;;;;;;;9.93;4.07;;;15.90;99.90;;;;;;5022074;28;20081;-81
2023/07/17 06:10:17;;;;;;;14.88;4.05;;;16.00;99.90;;;;;;5021851;28;20120;-80
2023/07/17 06:12:42;;;;;;;10.43;4.15;;;16.00;99.90;;;;;;5004430;28;20049;-80
2023/07/17 06:15:15;;;;;;;13.55;4.18;;;16.00;99.90;;;;;;5002228;28;20038;-80
2023/07/17 06:17:40;;;;;;;11.57;4.00;;;16.10;99.90;;;;;;5020030;28;20066;-81
2023/07/17 06:20:08;;;;;;;21.65;7.22;;;16.10;99.90;;;;;;5022986;28;20034;-81
2023/07/17 06:22:34;;;;;;;34.35;8.00;;;16.10;99.90;;;;;;5024666;28;20062;-79
2023/07/17 06:24:59;;;;;;;42.45;7.63;;;16.20;99.90;;;;;;4985647;28;20050;-79
2023/07/17 06:27:25;;;;;;;8.90;4.03;;;16.30;99.90;;;;;;4985255;28;20042;-80
2023/07/17 06:29:51;;;;;;;15.55;3.95;;;17.40;99.90;;;;;;5004423;28;20551;-81
2023/07/17 06:32:16;;;;;;;17.13;4.63;;;16.30;99.90;;;;;;5015773;28;20041;-80
2023/07/17 06:34:42;;;;;;;13.20;4.13;;;16.30;99.90;;;;;;5016634;28;20477;-80
2023/07/17 06:37:08;;;;;;;10.18;4.50;;;16.40;99.90;;;;;;5019189;28;20402;-80
2023/07/17 06:39:33;;;;;;;15.50;4.75;;;16.40;99.90;;;;;;5019444;28;20121;-80
2023/07/17 06:41:59;;;;;;;15.25;4.57;;;17.30;99.90;;;;;;5020492;28;20092;-81
2023/07/17 06:44:25;;;;;;;10.60;4.50;;;16.40;99.90;;;;;;4988107;28;20052;-81
2023/07/17 06:46:50;;;;;;;9.75;3.85;;;16.40;99.90;;;;;;5020234;28;20050;-81
2023/07/17 06:49:16;;;;;;;10.60;4.10;;;16.50;99.90;;;;;;5029448;28;20432;-83
2023/07/17 06:51:42;;;;;;;11.68;4.78;;;16.50;99.90;;;;;;5030312;28;20461;-81
2023/07/17 06:54:08;;;;;;;13.77;4.15;;;16.60;99.90;;;;;;5029793;28;20048;-83
2023/07/17 06:56:34;;;;;;;12.65;4.25;;;16.70;99.90;;;;;;4300760;28;10021589;-79
2023/07/17 06:59:01;;;;;;;14.57;5.00;;;16.80;99.90;;;;;;5027508;28;20085;-78
2023/07/17 07:01:26;;;;;;;13.48;5.32;;;16.80;99.90;;;;;;5010455;28;20125;-78
2023/07/17 07:03:52;;;;;;;14.75;6.07;;;17.40;99.90;;;;;;5027925;28;20132;-77
2023/07/17 07:06:17;;;;;;;16.77;4.80;;;17.40;99.90;;;;;;5033034;28;20049;-78
2023/07/17 07:08:43;;;;;;;13.98;5.30;;;16.70;99.90;;;;;;5029018;28;20044;-77
2023/07/17 07:11:10;;;;;;;14.82;4.25;;;17.70;99.90;;;;;;5030668;28;20045;-77
2023/07/17 07:13:36;;;;;;;10.50;2.92;;;16.90;99.90;;;;;;5028952;28;20039;-78
2023/07/17 07:16:01;;;;;;;13.02;3.58;;;16.20;99.90;;;;;;5026479;28;20555;-77
2023/07/17 07:18:27;;;;;;;7.97;3.92;;;15.90;99.90;;;;;;5024161;28;20049;-77
2023/07/17 07:20:53;;;;;;;8.15;3.03;;;15.70;99.90;;;;;;5011467;28;20057;-82
2023/07/17 07:23:19;;;;;;;9.07;2.67;;;16.00;99.90;;;;;;5007414;28;20045;-83
2023/07/17 07:25:45;;;;;;;7.93;2.80;;;15.30;99.90;;;;;;5029442;28;20069;-82
2023/07/17 07:28:12;;;;;;;10.82;3.42;;;15.30;99.90;;;;;;5025993;28;20084;-82
2023/07/17 07:30:38;;;;;;;10.13;4.50;;;15.20;99.90;;;;;;5027333;28;20048;-82
2023/07/17 07:33:04;;;;;;;12.00;4.63;;;15.10;99.90;;;;;;5028981;28;20041;-81
2023/07/17 07:35:30;;;;;;;11.70;4.30;;;15.10;99.90;;;;;;5024891;28;20094;-83
2023/07/17 07:37:55;;;;;;;11.15;4.53;;;15.50;99.90;;;;;;5020833;28;20482;-82
2023/07/17 07:40:21;;;;;;;17.20;4.80;;;15.00;99.90;;;;;;5030770;28;20044;-83
2023/07/17 07:42:47;;;;;;;14.93;4.97;;;15.00;99.90;;;;;;5030326;28;20401;-81
2023/07/17 07:45:13;;;;;;;12.77;4.97;;;15.10;99.90;;;;;;5020466;28;20145;-83
2023/07/17 07:47:39;;;;;;;12.88;5.47;;;15.10;99.90;;;;;;5031105;28;20077;-83
2023/07/17 07:50:07;;;;;;;12.93;5.20;;;15.20;99.90;;;;;;5026045;28;20084;-84
2023/07/17 07:52:33;;;;;;;13.20;4.88;;;15.30;99.90;;;;;;5028813;28;20048;-84
2023/07/17 07:54:59;;;;;;;15.85;5.97;;;15.30;99.90;;;;;;5023307;28;20057;-79
2023/07/17 07:57:24;;;;;;;11.93;5.20;;;14.50;99.90;;;;;;5022287;28;20437;-80
2023/07/17 07:59:50;;;;;;;9.65;5.00;;;15.60;99.90;;;;;;5027754;28;20037;-79
2023/07/17 08:02:17;;;;;;;15.13;5.22;;;15.60;99.90;;;;;;5026855;28;20155;-80
2023/07/17 08:04:43;;;;;;;17.95;4.47;;;15.70;99.90;;;;;;5027506;28;20080;-79
2023/07/17 08:07:09;;;;;;;11.90;4.97;;;15.80;99.90;;;;;;5029113;28;20054;-79
2023/07/17 08:09:35;;;;;;;13.48;4.95;;;15.80;99.90;;;;;;5025303;28;20451;-79
2023/07/17 08:12:00;;;;;;;13.57;5.32;;;15.90;99.90;;;;;;5028534;28;20049;-81
2023/07/17 08:14:26;;;;;;;13.93;5.20;;;15.90;99.90;;;;;;5029988;28;20030;-79
2023/07/17 08:16:52;;;;;;;13.57;4.43;;;16.00;99.90;;;;;;5029107;28;20037;-77
2023/07/17 08:19:19;;;;;;;12.77;4.65;;;16.10;99.90;;;;;;5020866;28;20381;-78
2023/07/17 08:21:45;;;;;;;11.25;4.30;;;16.20;99.90;;;;;;5027151;28;20076;-79
2023/07/17 08:24:11;;;;;;;13.00;4.75;;;16.20;99.90;;;;;;5020758;28;20506;-80
2023/07/17 08:26:38;;;;;;;13.35;4.47;;;16.30;99.90;;;;;;5009749;28;20049;-78
2023/07/17 08:29:05;;;;;;;15.25;4.18;;;16.40;99.90;;;;;;5020606;28;20390;-79
2023/07/17 08:31:33;;;;;;;9.90;4.30;;;16.40;99.90;;;;;;5029290;28;20079;-78
2023/07/17 08:34:00;;;;;;;11.27;4.18;;;16.40;99.90;;;;;;5027538;28;20525;-77
2023/07/17 08:36:27;;;;;;;11.15;3.95;;;16.50;99.90;;;;;;5027794;28;20073;-76
2023/07/17 08:38:53;;;;;;;13.48;4.10;;;16.60;99.90;;;;;;5027459;28;20036;-76
2023/07/17 08:41:18;;;;;;;8.30;3.28;;;16.70;99.90;;;;;;5027738;28;20037;-78
2023/07/17 08:43:45;;;;;;;12.93;4.15;;;16.80;99.90;;;;;;5028684;28;20068;-77
2023/07/17 08:46:12;;;;;;;11.75;3.88;;;16.90;99.90;;;;;;5035757;28;20087;-77
2023/07/17 08:48:40;;;;;;;13.05;4.05;;;17.00;99.90;;;;;;5012157;28;20040;-76
2023/07/17 08:51:08;;;;;;;8.73;3.17;;;17.10;99.90;;;;;;5024298;28;20042;-80
2023/07/17 08:53:35;;;;;;;13.13;4.03;;;17.20;99.90;;;;;;5027003;28;20025;-80
2023/07/17 08:56:01;;;;;;;9.68;3.67;;;17.20;99.90;;;;;;5008802;28;20290;-80
2023/07/17 08:58:30;;;;;;;11.85;3.00;;;17.60;99.90;;;;;;4993916;28;20042;-80
2023/07/17 09:00:56;;;;;;;9.55;2.97;;;17.20;99.90;;;;;;5006415;28;20042;-81
2023/07/17 09:03:23;;;;;;;9.32;3.13;;;17.40;99.90;;;;;;5027669;28;20623;-81
2023/07/17 09:05:49;;;;;;;8.93;2.47;;;17.40;99.90;;;;;;5027430;28;20053;-82
2023/07/17 09:08:15;;;;;;;5.25;2.13;;;17.40;99.90;;;;;;5018485;28;20513;-82
2023/07/17 09:10:41;;;;;;;6.93;2.47;;;17.40;99.90;;;;;;5021385;28;20045;-82
2023/07/17 09:13:06;;;;;;;11.23;3.17;;;17.50;99.90;;;;;;5020712;28;20065;-80
2023/07/17 09:15:33;;;;;;;12.25;2.55;;;17.50;99.90;;;;;;5019199;28;20099;-82
2023/07/17 09:18:00;;;;;;;7.80;2.22;;;17.50;99.90;;;;;;5023893;28;20526;-82
2023/07/17 09:20:27;;;;;;;5.45;1.80;;;17.50;99.90;;;;;;5028743;28;20042;-83
2023/07/17 09:22:59;;;;;;;11.38;2.80;;;17.50;99.90;;;;;;5001854;28;20140;-82
2023/07/17 09:25:26;;;;;;;4.85;2.00;;;17.60;99.90;;;;;;5023655;28;20100;-81
2023/07/17 09:27:52;;;;;;;6.80;2.40;;;17.70;99.90;;;;;;5023824;28;20147;-82
2023/07/17 09:30:24;;;;;;;8.35;3.50;;;17.70;99.90;;;;;;5020926;28;20121;-82
2023/07/17 09:32:51;;;;;;;9.15;2.20;;;17.80;99.90;;;;;;5020511;28;20048;-82
2023/07/17 09:35:24;;;;;;;8.80;2.13;;;17.90;99.90;;;;;;5004102;28;20099;-82
2023/07/17 09:37:52;;;;;;;6.05;1.90;;;17.90;99.90;;;;;;5023071;28;20469;-82
2023/07/17 09:40:19;;;;;;;9.52;2.28;;;18.00;99.90;;;;;;5021827;28;20048;-82
2023/07/17 09:42:51;;;;;;;9.85;2.28;;;18.00;99.90;;;;;;5020107;28;20077;-82
2023/07/17 09:45:19;;;;;;;6.55;2.58;;;18.20;99.90;;;;;;5020579;28;20584;-83
2023/07/17 09:47:49;;;;;;;5.47;1.73;;;18.30;99.90;;;;;;5023491;28;20614;-82
2023/07/17 09:50:16;;;;;;;4.22;1.92;;;18.30;99.90;;;;;;5004553;28;20049;-83
2023/07/17 09:52:45;;;;;;;4.18;1.52;;;18.40;99.90;;;;;;5002016;28;20112;-81
2023/07/17 09:55:10;;;;;;;5.25;1.65;;;18.40;99.90;;;;;;5022756;28;20037;-82
2023/07/17 09:57:39;;;;;;;4.22;1.98;;;18.50;99.90;;;;;;5006514;28;20137;-81
2023/07/17 10:00:14;;;;;;;8.13;2.00;;;18.50;99.90;;;;;;5023608;28;20455;-83
2023/07/17 10:03:09;;;;;;;5.22;1.75;;;18.40;99.90;;;;;;5025719;28;20401;-79
2023/07/17 10:05:37;;;;;;;5.60;1.50;;;18.50;99.90;;;;;;5022958;28;20088;-82
2023/07/17 10:08:08;;;;;;;6.82;2.33;;;18.60;99.90;;;;;;5024108;28;20110;-81
2023/07/17 10:10:36;;;;;;;10.60;1.95;;;18.60;99.90;;;;;;5023800;28;20111;-81
2023/07/17 10:13:02;;;;;;;7.88;1.92;;;18.70;99.90;;;;;;5022380;28;20037;-80
2023/07/17 10:15:28;;;;;;;5.10;1.75;;;18.80;99.90;;;;;;5020384;28;20087;-80
2023/07/17 10:17:58;;;;;;;7.85;1.70;;;18.80;99.90;;;;;;5020237;28;20053;-82
2023/07/17 10:20:25;;;;;;;5.55;1.88;;;18.70;99.90;;;;;;5027704;28;20512;-80
2023/07/17 10:22:51;;;;;;;8.32;2.20;;;19.00;99.90;;;;;;5022558;28;20103;-82
2023/07/17 10:25:19;;;;;;;6.80;1.70;;;18.80;99.90;;;;;;5028195;28;20081;-82
2023/07/17 10:27:47;;;;;;;8.63;1.88;;;18.90;99.90;;;;;;5016373;28;20371;-83
2023/07/17 10:30:35;;;;;;;4.22;2.03;;;18.80;99.90;;;;;;5023308;28;20041;-82
2023/07/17 10:33:06;;;;;;;7.50;1.83;;;18.80;99.90;;;;;;5021876;28;20379;-83
2023/07/17 10:35:57;;;;;;;7.03;2.30;;;18.90;99.90;;;;;;5023533;28;20053;-83
2023/07/17 10:38:24;;;;;;;6.88;2.55;;;19.00;99.90;;;;;;5022336;28;20037;-83
2023/07/17 10:41:03;;;;;;;7.72;1.70;;;19.10;99.90;;;;;;4985003;28;20045;-82
2023/07/17 10:43:29;;;;;;;9.50;2.28;;;19.10;99.90;;;;;;5022358;28;20045;-82
2023/07/17 10:45:54;;;;;;;2.90;2.00;;;19.10;99.90;;;;;;5022555;28;20044;-82
2023/07/17 10:48:25;;;;;;;3.85;1.75;;;19.10;99.90;;;;;;5021728;28;20037;-83
2023/07/17 10:50:54;;;;;;;5.78;1.60;;;19.10;99.90;;;;;;5019012;28;20103;-81
2023/07/17 10:53:21;;;;;;;4.72;1.52;;;19.20;99.90;;;;;;5019283;28;20042;-81
2023/07/17 10:55:46;;;;;;;4.70;2.13;;;19.20;99.90;;;;;;5021242;28;20053;-82
2023/07/17 10:58:18;;;;;;;4.53;1.77;;;19.20;99.90;;;;;;5024027;28;20037;-84
2023/07/17 11:01:03;;;;;;;9.25;2.35;;;19.20;99.90;;;;;;5025483;28;20041;-84
2023/07/17 11:03:28;;;;;;;;;;;19.30;99.90;;;;;;5021982;28;20060;-82
2023/07/17 11:05:57;;;;;;;4.43;1.60;;;19.30;99.90;;;;;;5020272;28;20272;-81
2023/07/17 11:08:26;;;;;;;6.82;1.63;;;19.40;99.90;;;;;;5002371;28;20053;-81
2023/07/17 11:10:53;;;;;;;5.45;1.98;;;19.50;99.90;;;;;;5023903;28;20045;-79
2023/07/17 11:13:18;;;;;;;6.88;2.33;;;19.60;99.90;;;;;;5023873;28;20485;-83
2023/07/17 11:15:44;;;;;;;5.15;1.85;;;19.60;99.90;;;;;;5020204;28;20084;-81
2023/07/17 11:18:10;;;;;;;5.95;2.30;;;19.70;99.90;;;;;;5020338;28;20070;-82
2023/07/17 11:20:36;;;;;;;3.30;2.00;;;19.70;99.90;;;;;;5021360;28;20046;-84
2023/07/17 11:23:10;;;;;;;5.53;2.42;;;19.70;99.90;;;;;;5005707;28;20060;-83
2023/07/17 11:25:36;;;;;;;5.28;2.10;;;19.80;99.90;;;;;;5023509;28;20048;-83
2023/07/17 11:28:02;;;;;;;5.60;1.98;;;20.00;99.90;;;;;;5020110;28;20038;-82
2023/07/17 11:30:29;;;;;;;5.82;2.05;;;20.00;99.90;;;;;;5003652;28;20129;-83
2023/07/17 11:33:00;;;;;;;5.20;2.08;;;19.90;99.90;;;;;;5020360;28;20056;-82
2023/07/17 11:35:37;;;;;;;5.57;2.00;;;19.80;99.90;;;;;;5029703;28;20049;-81
2023/07/17 11:38:10;;;;;;;5.97;2.38;;;19.80;99.90;;;;;;5021617;28;20389;-82
2023/07/17 11:41:08;;;;;;;4.75;1.65;;;19.70;99.90;;;;;;5018312;28;20077;-83
2023/07/17 11:43:37;;;;;;;7.43;1.98;;;19.80;99.90;;;;;;4997114;28;20057;-81
2023/07/17 11:46:08;;;;;;;9.07;1.75;;;19.90;99.90;;;;;;5017489;28;20371;-82
2023/07/17 11:48:43;;;;;;;5.40;2.10;;;20.10;99.90;;;;;;5019653;28;20045;-83
2023/07/17 11:51:09;;;;;;;3.33;1.23;;;20.20;99.90;;;;;;5020058;28;20076;-83
2023/07/17 11:53:37;;;;;;;3.45;1.30;;;20.30;99.90;;;;;;5021090;28;20037;-81
2023/07/17 11:56:03;;;;;;;5.35;1.98;;;20.40;99.90;;;;;;5019108;28;20054;-82
2023/07/17 11:58:31;;;;;;;7.00;2.20;;;20.50;99.90;;;;;;5024514;28;20120;-82
2023/07/17 12:00:57;;;;;;;3.65;1.40;;;20.50;99.90;;;;;;5028616;28;20081;-82
2023/07/17 12:03:23;;;;;;;5.22;1.88;;;20.50;99.90;;;;;;5023856;28;20116;-82
2023/07/17 12:05:49;;;;;;;8.65;1.88;;;20.50;99.90;;;;;;5017565;28;20529;-81
2023/07/17 12:08:16;;;;;;;4.63;1.88;;;20.50;99.90;;;;;;5018106;28;20057;-81
2023/07/17 12:10:42;;;;;;;5.50;2.20;;;20.60;99.90;;;;;;5021502;28;20046;-80
2023/07/17 12:13:08;;;;;;;6.13;2.25;;;20.60;99.90;;;;;;5020804;28;20094;-84
2023/07/17 12:15:33;;;;;;;3.83;1.50;;;20.70;99.90;;;;;;5020641;28;20053;-82
2023/07/17 12:18:00;;;;;;;4.68;1.73;;;20.90;99.90;;;;;;5017877;28;20038;-83
2023/07/17 12:20:26;;;;;;;2.83;1.23;;;20.90;99.90;;;;;;5017299;28;20516;-82
2023/07/17 12:22:53;;;;;;;5.55;2.13;;;20.90;99.90;;;;;;5020506;28;20061;-83
2023/07/17 12:25:19;;;;;;;8.35;1.80;;;20.80;99.90;;;;;;5019620;28;20045;-81
2023/07/17 12:27:46;;;;;;;5.25;1.63;;;20.70;99.90;;;;;;5018549;28;20464;-82
2023/07/17 12:30:13;;;;;;;2.25;1.65;;;20.50;99.90;;;;;;5017676;28;20375;-82
2023/07/17 12:32:39;;;;;;;7.00;2.13;;;20.40;99.90;;;;;;5017924;28;20046;-82
2023/07/17 12:35:06;;;;;;;6.95;1.30;;;20.50;99.90;;;;;;5020823;28;20040;-83
2023/07/17 12:37:32;;;;;;;3.70;1.20;;;20.50;99.90;;;;;;5021283;28;20519;-81
2023/07/17 12:39:58;;;;;;;2.15;1.30;;;20.60;99.80;;;;;;5016281;28;20042;-81
2023/07/17 12:42:24;;;;;;;4.53;1.45;;;20.70;99.50;;;;;;5000453;28;20048;-83